createdAt,value
2019-04-22T00:00:34.796Z,6.10
2019-04-22T00:01:31.267Z,6.40
2019-04-22T00:02:29.894Z,5.80
2019-04-22T00:03:38.283Z,5.70
2019-04-22T00:04:40.211Z,6.60
2019-04-22T00:05:53.195Z,5.80
2019-04-22T00:06:50.304Z,6.30
2019-04-22T00:07:56.794Z,5.80
2019-04-22T00:08:58.751Z,6.00
2019-04-22T00:10:55.820Z,5.90
2019-04-22T00:11:53.122Z,5.90
2019-04-22T00:12:57.755Z,5.40
2019-04-22T00:14:14.991Z,5.90
2019-04-22T00:14:48.056Z,6.00
2019-04-22T00:15:47.513Z,6.10
2019-04-22T00:16:56.681Z,6.10
2019-04-22T00:18:00.372Z,5.90
2019-04-22T00:19:11.361Z,5.30
2019-04-22T00:19:57.690Z,5.80
2019-04-22T00:20:42.084Z,6.10
2019-04-22T00:21:55.988Z,5.80
2019-04-22T00:22:52.022Z,6.10
2019-04-22T00:23:54.881Z,5.80
2019-04-22T00:24:52.607Z,5.40
2019-04-22T00:25:57.280Z,5.40
2019-04-22T00:26:58.495Z,5.90
2019-04-22T00:28:01.011Z,5.60
2019-04-22T00:29:08.113Z,5.80
2019-04-22T00:30:13.895Z,5.80
2019-04-22T00:30:54.718Z,5.60
2019-04-22T00:31:54.713Z,5.20
2019-04-22T00:32:53.671Z,5.70
2019-04-22T00:33:53.213Z,6.00
2019-04-22T00:34:53.709Z,5.80
2019-04-22T00:35:49.704Z,5.30
2019-04-22T00:36:50.662Z,5.80
2019-04-22T00:37:53.262Z,5.70
2019-04-22T00:38:54.281Z,5.40
2019-04-22T00:39:51.322Z,5.80
2019-04-22T00:40:52.231Z,5.90
2019-04-22T00:41:55.210Z,5.20
2019-04-22T00:42:53.292Z,5.30
2019-04-22T00:43:59.525Z,5.50
2019-04-22T00:44:57.860Z,5.40
2019-04-22T00:45:48.142Z,5.70
2019-04-22T00:46:55.690Z,5.30
2019-04-22T00:47:50.735Z,5.90
2019-04-22T00:49:18.187Z,5.00
2019-04-22T00:51:56.947Z,5.30
2019-04-22T00:52:56.060Z,5.40
2019-04-22T00:53:56.235Z,5.30
2019-04-22T00:54:59.435Z,5.80
2019-04-22T00:55:54.356Z,5.90
2019-04-22T00:56:47.485Z,5.10
2019-04-22T00:57:54.254Z,5.40
2019-04-22T00:59:08.183Z,5.60
2019-04-22T00:59:52.331Z,5.60
2019-04-22T01:00:58.753Z,5.20
2019-04-22T01:01:57.583Z,5.30
2019-04-22T01:02:54.123Z,5.60
2019-04-22T01:03:58.520Z,5.30
2019-04-22T01:04:57.532Z,5.30
2019-04-22T01:05:59.634Z,5.00
2019-04-22T01:06:51.629Z,5.00
2019-04-22T01:07:50.022Z,4.90
2019-04-22T01:09:56.168Z,4.90
2019-04-22T01:10:52.715Z,5.00
2019-04-22T01:11:53.716Z,5.00
2019-04-22T01:12:51.541Z,5.20
2019-04-22T01:13:53.421Z,5.20
2019-04-22T01:14:53.829Z,4.90
2019-04-22T01:16:00.885Z,5.00
2019-04-22T01:16:55.145Z,5.10
2019-04-22T01:17:52.570Z,5.10
2019-04-22T01:18:52.277Z,4.80
2019-04-22T01:20:05.040Z,4.80
2019-04-22T01:21:52.433Z,5.20
2019-04-22T01:22:46.125Z,5.00
2019-04-22T01:23:49.364Z,4.80
2019-04-22T01:24:48.641Z,5.50
2019-04-22T01:25:46.145Z,5.20
2019-04-22T01:26:43.490Z,4.70
2019-04-22T01:27:40.231Z,5.20
2019-04-22T01:28:39.309Z,4.80
2019-04-22T01:29:39.707Z,5.20
2019-04-22T01:30:34.989Z,4.70
2019-04-22T01:31:30.872Z,4.90
2019-04-22T01:32:32.785Z,5.00
2019-04-22T01:33:33.209Z,5.20
2019-04-22T01:34:40.429Z,5.20
2019-04-22T01:35:41.284Z,5.10
2019-04-22T01:36:51.702Z,5.00
2019-04-22T01:37:45.685Z,4.90
2019-04-22T01:38:56.441Z,4.70
2019-04-22T01:39:50.641Z,4.80
2019-04-22T01:40:57.824Z,4.90
2019-04-22T01:41:59.793Z,5.00
2019-04-22T01:42:56.010Z,4.90
2019-04-22T01:43:58.797Z,5.10
2019-04-22T01:45:12.408Z,5.10
2019-04-22T01:45:53.240Z,5.10
2019-04-22T01:46:55.199Z,5.20
2019-04-22T01:47:53.296Z,5.30
2019-04-22T01:48:54.300Z,5.20
2019-04-22T01:49:55.672Z,4.80
2019-04-22T01:50:49.981Z,4.90
2019-04-22T01:52:52.072Z,5.10
2019-04-22T01:53:58.021Z,5.10
2019-04-22T01:55:12.632Z,5.30
2019-04-22T01:55:49.989Z,5.30
2019-04-22T01:56:54.809Z,5.10
2019-04-22T01:57:50.037Z,5.20
2019-04-22T01:58:44.291Z,4.60
2019-04-22T01:59:40.419Z,5.10
2019-04-22T02:00:53.467Z,4.90
2019-04-22T02:01:55.201Z,4.50
2019-04-22T02:02:48.782Z,5.00
2019-04-22T02:03:57.443Z,5.30
2019-04-22T02:04:53.716Z,5.00
2019-04-22T02:05:50.542Z,5.00
2019-04-22T02:06:48.221Z,5.10
2019-04-22T02:07:50.257Z,5.30
2019-04-22T02:08:52.711Z,5.00
2019-04-22T02:09:53.351Z,5.20
2019-04-22T02:11:11.848Z,5.10
2019-04-22T02:11:56.384Z,5.30
2019-04-22T02:12:54.239Z,4.80
2019-04-22T02:13:49.486Z,4.60
2019-04-22T02:14:52.227Z,4.90
2019-04-22T02:15:52.492Z,5.00
2019-04-22T02:16:57.637Z,4.50
2019-04-22T02:17:54.746Z,5.00
2019-04-22T02:18:58.401Z,4.90
2019-04-22T02:19:57.827Z,4.80
2019-04-22T02:20:48.605Z,4.80
2019-04-22T02:21:51.686Z,4.90
2019-04-22T02:23:11.570Z,5.10
2019-04-22T02:23:54.763Z,5.10
2019-04-22T02:24:51.110Z,5.40
2019-04-22T02:25:56.393Z,4.90
2019-04-22T02:26:54.630Z,4.90
2019-04-22T02:28:03.240Z,5.00
2019-04-22T02:29:51.955Z,5.40
2019-04-22T02:31:13.958Z,5.50
2019-04-22T02:31:58.994Z,5.10
2019-04-22T02:33:25.511Z,5.20
2019-04-22T02:34:12.016Z,5.10
2019-04-22T02:36:09.027Z,5.50
2019-04-22T02:36:58.224Z,5.40
2019-04-22T02:37:54.737Z,5.30
2019-04-22T02:39:55.445Z,5.40
2019-04-22T02:41:21.033Z,5.30
2019-04-22T02:41:54.766Z,5.30
2019-04-22T02:43:01.937Z,5.20
2019-04-22T02:44:04.052Z,5.20
2019-04-22T02:46:13.489Z,5.20
2019-04-22T02:49:53.500Z,4.40
2019-04-22T02:52:09.381Z,4.50
2019-04-22T02:52:56.435Z,4.60
2019-04-22T02:55:01.371Z,4.40
2019-04-22T02:56:05.541Z,4.40
2019-04-22T02:56:48.744Z,4.70
2019-04-22T02:57:49.140Z,4.70
2019-04-22T02:59:04.198Z,4.60
2019-04-22T02:59:57.367Z,4.60
2019-04-22T03:01:01.394Z,4.60
2019-04-22T03:01:47.801Z,4.90
2019-04-22T03:04:51.534Z,4.90
2019-04-22T03:06:43.476Z,4.20
2019-04-22T03:07:58.792Z,4.30
2019-04-22T03:08:59.668Z,4.90
2019-04-22T03:09:53.613Z,4.50
2019-04-22T03:11:04.061Z,4.10
2019-04-22T03:12:54.102Z,4.60
2019-04-22T03:14:45.674Z,4.90
2019-04-22T03:14:48.669Z,5.10
2019-04-22T03:16:07.700Z,4.40
2019-04-22T03:17:10.313Z,4.60
2019-04-22T03:18:03.075Z,4.30
2019-04-22T03:19:06.048Z,4.30
2019-04-22T03:19:58.746Z,4.50
2019-04-22T03:20:58.179Z,4.20
2019-04-22T03:22:12.803Z,4.70
2019-04-22T03:22:55.108Z,4.60
2019-04-22T03:24:05.934Z,4.50
2019-04-22T03:25:29.708Z,4.90
2019-04-22T03:27:48.273Z,4.40
2019-04-22T03:28:54.824Z,4.50
2019-04-22T03:30:26.620Z,5.10
2019-04-22T03:34:44.850Z,4.80
2019-04-22T03:36:18.680Z,4.80
2019-04-22T03:40:07.301Z,5.00
2019-04-22T03:41:13.457Z,4.50
2019-04-22T03:43:09.184Z,5.20
2019-04-22T03:43:13.661Z,4.50
2019-04-22T03:44:10.253Z,4.90
2019-04-22T03:45:02.778Z,4.70
2019-04-22T03:45:58.751Z,4.60
2019-04-22T03:47:02.763Z,4.90
2019-04-22T03:49:11.735Z,4.80
2019-04-22T03:50:04.034Z,4.90
2019-04-22T03:50:43.145Z,4.90
2019-04-22T03:54:03.513Z,5.00
2019-04-22T03:55:13.467Z,5.10
2019-04-22T03:55:58.773Z,5.00
2019-04-22T03:57:31.167Z,4.70
2019-04-22T03:57:52.010Z,4.90
2019-04-22T03:58:57.071Z,4.60
2019-04-22T04:02:16.181Z,4.90
2019-04-22T04:02:55.974Z,4.50
2019-04-22T04:04:02.968Z,4.90
2019-04-22T04:04:51.075Z,4.60
2019-04-22T04:05:54.207Z,4.70
2019-04-22T04:08:51.527Z,4.70
2019-04-22T04:10:08.194Z,4.80
2019-04-22T04:10:53.393Z,4.50
2019-04-22T04:13:03.443Z,4.40
2019-04-22T04:14:01.486Z,4.80
2019-04-22T04:15:14.109Z,4.10
2019-04-22T04:15:46.626Z,5.00
2019-04-22T04:16:56.751Z,4.90
2019-04-22T04:17:51.841Z,4.60
2019-04-22T04:20:05.750Z,5.20
2019-04-22T04:21:00.697Z,5.00
2019-04-22T04:21:53.505Z,5.40
2019-04-22T04:23:05.531Z,5.30
2019-04-22T04:24:23.864Z,4.90
2019-04-22T04:27:20.781Z,5.00
2019-04-22T04:30:14.360Z,4.70
2019-04-22T04:30:48.906Z,5.00
2019-04-22T04:32:58.922Z,4.70
2019-04-22T04:33:54.114Z,5.30
2019-04-22T04:35:54.835Z,5.20
2019-04-22T04:37:25.173Z,5.00
2019-04-22T04:38:51.948Z,4.80
2019-04-22T04:40:50.895Z,4.70
2019-04-22T04:42:56.619Z,4.60
2019-04-22T04:44:16.898Z,4.60
2019-04-22T04:45:10.978Z,4.90
2019-04-22T04:46:58.991Z,5.10
2019-04-22T04:48:00.992Z,5.00
2019-04-22T04:49:00.524Z,5.10
2019-04-22T04:50:06.949Z,4.70
2019-04-22T04:53:06.277Z,4.80
2019-04-22T04:53:58.132Z,5.20
2019-04-22T04:55:17.582Z,4.90
2019-04-22T04:55:53.163Z,4.60
2019-04-22T04:56:51.403Z,4.70
2019-04-22T05:00:26.766Z,4.80
2019-04-22T05:01:55.626Z,5.00
2019-04-22T05:02:52.455Z,4.80
2019-04-22T05:03:57.323Z,5.00
2019-04-22T05:05:04.270Z,5.20
2019-04-22T05:05:52.397Z,5.20
2019-04-22T05:07:05.408Z,4.90
2019-04-22T05:09:51.576Z,4.80
2019-04-22T05:11:05.924Z,5.10
2019-04-22T05:12:01.729Z,4.70
2019-04-22T05:14:50.549Z,5.20
2019-04-22T05:15:59.802Z,4.60
2019-04-22T05:17:54.308Z,4.60
2019-04-22T05:18:55.087Z,4.80
2019-04-22T05:19:49.574Z,4.20
2019-04-22T05:21:02.898Z,4.30
2019-04-22T05:21:53.361Z,4.90
2019-04-22T05:23:03.248Z,4.40
2019-04-22T05:24:00.586Z,4.50
2019-04-22T05:25:08.215Z,4.00
2019-04-22T05:25:41.339Z,4.50
2019-04-22T05:26:50.715Z,3.90
2019-04-22T05:27:47.215Z,4.30
2019-04-22T05:28:42.264Z,4.70
2019-04-22T05:30:03.693Z,4.60
2019-04-22T05:30:39.598Z,4.30
2019-04-22T05:31:52.191Z,4.80
2019-04-22T05:33:03.006Z,4.80
2019-04-22T05:33:48.416Z,4.60
2019-04-22T05:34:48.724Z,4.50
2019-04-22T05:35:51.134Z,4.90
2019-04-22T05:36:49.438Z,4.50
2019-04-22T05:37:49.960Z,4.40
2019-04-22T05:38:52.278Z,4.60
2019-04-22T05:39:52.724Z,4.70
2019-04-22T05:40:40.847Z,4.90
2019-04-22T05:41:43.450Z,4.60
2019-04-22T05:42:54.621Z,4.40
2019-04-22T05:43:42.149Z,4.70
2019-04-22T05:45:43.098Z,4.60
2019-04-22T05:46:39.319Z,4.50
2019-04-22T05:47:46.296Z,4.50
2019-04-22T05:48:44.583Z,4.20
2019-04-22T05:49:41.754Z,4.20
2019-04-22T05:50:47.409Z,4.30
2019-04-22T06:10:11.621Z,4.60
2019-04-22T06:11:10.246Z,4.50
2019-04-22T06:11:58.968Z,4.40
2019-04-22T06:13:02.173Z,4.40
2019-04-22T06:16:16.082Z,4.40
2019-04-22T06:17:20.212Z,4.30
2019-04-22T06:18:16.275Z,4.50
2019-04-22T06:19:15.621Z,4.40
2019-04-22T06:20:09.080Z,4.50
2019-04-22T06:21:12.584Z,4.50
2019-04-22T06:22:25.373Z,4.70
2019-04-22T06:23:24.393Z,4.80
2019-04-22T06:24:16.599Z,4.10
2019-04-22T06:25:20.374Z,4.20
2019-04-22T06:27:26.899Z,4.70
2019-04-22T06:28:26.844Z,4.50
2019-04-22T06:29:14.979Z,4.90
2019-04-22T06:35:19.770Z,4.70
2019-04-22T06:36:08.013Z,4.50
2019-04-22T06:37:13.087Z,4.50
2019-04-22T06:38:26.826Z,4.40
2019-04-22T06:39:19.069Z,4.70
2019-04-22T06:41:33.277Z,4.80
2019-04-22T06:43:20.082Z,4.60
2019-04-22T06:44:22.648Z,4.50
2019-04-22T06:45:18.890Z,4.70
2019-04-22T06:46:21.416Z,4.70
2019-04-22T06:47:27.355Z,4.70
2019-04-22T07:31:21.120Z,4.10
2019-04-22T07:32:47.743Z,4.30
2019-04-22T07:33:27.760Z,5.30
2019-04-22T07:34:29.608Z,4.30
2019-04-22T07:35:28.602Z,5.00
2019-04-22T07:37:31.627Z,4.40
2019-04-22T07:38:26.387Z,4.10
2019-04-22T07:41:43.166Z,4.60
2019-04-22T07:42:49.407Z,3.90
2019-04-22T07:44:03.034Z,4.30
2019-04-22T07:44:51.066Z,4.30
2019-04-22T07:46:00.083Z,4.30
2019-04-22T07:47:52.416Z,4.70
2019-04-22T08:05:22.473Z,5.70
2019-04-22T08:09:16.677Z,6.00
2019-04-22T08:10:16.696Z,5.80
2019-04-22T08:11:21.870Z,6.00
2019-04-22T08:12:55.411Z,6.00
2019-04-22T08:13:49.851Z,6.00
2019-04-22T08:14:54.722Z,5.90
2019-04-22T08:15:55.341Z,6.30
2019-04-22T08:17:01.575Z,5.90
2019-04-22T08:20:20.100Z,5.90
2019-04-22T08:44:52.124Z,6.10
2019-04-22T08:45:46.182Z,6.40
2019-04-22T08:58:21.685Z,6.10
2019-04-22T09:00:39.655Z,6.30
2019-04-22T09:01:36.380Z,6.20
2019-04-22T09:02:38.650Z,6.30
2019-04-22T09:03:39.769Z,6.90
2019-04-22T09:09:34.001Z,6.30
2019-04-22T09:10:38.051Z,6.40
2019-04-22T09:12:50.013Z,6.10
2019-04-22T09:13:41.707Z,5.50
2019-04-22T09:14:40.512Z,6.60
2019-04-22T09:15:35.801Z,6.10
2019-04-22T09:17:34.619Z,5.10
2019-04-22T09:18:34.850Z,5.90
2019-04-22T09:19:30.098Z,5.50
2019-04-22T09:20:32.656Z,5.70
2019-04-22T09:26:24.001Z,5.40
2019-04-22T09:33:49.215Z,5.30
2019-04-22T09:34:51.297Z,5.30
2019-04-22T09:35:52.076Z,5.70
2019-04-22T09:58:44.695Z,4.70
2019-04-22T09:59:54.093Z,4.60
2019-04-22T10:00:52.789Z,4.70
2019-04-22T10:01:51.989Z,5.00
2019-04-22T10:02:47.365Z,4.90
2019-04-22T10:03:54.534Z,4.60
2019-04-22T10:04:48.242Z,4.90
2019-04-22T10:05:50.022Z,4.60
2019-04-22T10:06:41.229Z,4.60
2019-04-22T10:07:44.797Z,4.50
2019-04-22T10:08:52.623Z,4.40
2019-04-22T10:09:59.483Z,4.20
2019-04-22T10:10:48.723Z,3.90
2019-04-22T10:11:55.296Z,4.70
2019-04-22T10:59:40.715Z,3.80
2019-04-22T11:00:40.031Z,3.70
2019-04-22T11:01:40.414Z,4.30
2019-04-22T11:02:41.457Z,4.00
2019-04-22T11:03:41.439Z,3.70
2019-04-22T11:04:40.542Z,4.00
2019-04-22T11:05:39.960Z,3.90
2019-04-22T11:06:48.655Z,4.30
2019-04-22T11:07:46.285Z,4.10
2019-04-22T11:08:46.690Z,3.80
2019-04-22T11:09:49.332Z,3.60
2019-04-22T11:10:56.399Z,3.70
2019-04-22T11:11:48.903Z,3.70
2019-04-22T11:12:41.231Z,3.80
2019-04-22T11:13:39.965Z,3.90
2019-04-22T11:14:43.126Z,3.80
2019-04-22T11:15:40.507Z,4.10
2019-04-22T11:16:39.775Z,3.90
2019-04-22T11:17:39.763Z,4.00
2019-04-22T11:18:41.157Z,4.20
2019-04-22T11:19:39.729Z,3.80
2019-04-22T11:20:39.838Z,4.30
2019-04-22T11:21:39.692Z,4.00
2019-04-22T11:22:40.707Z,4.10
2019-04-22T11:23:40.672Z,3.80
2019-04-22T11:24:41.063Z,3.90
2019-04-22T11:25:39.688Z,4.20
2019-04-22T11:26:41.017Z,4.10
2019-04-22T11:27:41.095Z,4.10
2019-04-22T11:28:39.594Z,4.20
2019-04-22T11:29:39.604Z,4.00
2019-04-22T11:30:40.634Z,4.00
2019-04-22T11:31:39.539Z,4.10
2019-04-22T11:32:40.428Z,3.90
2019-04-22T11:33:40.658Z,3.90
2019-04-22T11:34:39.532Z,4.80
2019-04-22T11:35:39.650Z,4.30
2019-04-22T11:36:40.776Z,4.20
2019-04-22T11:37:40.696Z,4.20
2019-04-22T11:38:48.575Z,4.30
2019-04-22T11:39:40.743Z,3.90
2019-04-22T11:40:43.889Z,4.10
2019-04-22T11:41:40.263Z,3.90
2019-04-22T11:42:40.575Z,4.50
2019-04-22T11:43:41.043Z,4.20
2019-04-22T11:44:39.340Z,3.80
2019-04-22T11:45:39.668Z,3.90
2019-04-22T11:46:39.402Z,4.30
2019-04-22T11:47:39.401Z,4.60
2019-04-22T11:48:40.123Z,4.20
2019-04-22T11:49:39.784Z,4.30
2019-04-22T11:50:40.005Z,3.90
2019-04-22T11:51:40.217Z,4.30
2019-04-22T11:52:40.515Z,4.00
2019-04-22T11:53:40.745Z,4.10
2019-04-22T11:54:39.187Z,4.10
2019-04-22T11:55:40.418Z,3.80
2019-04-22T11:56:39.156Z,3.70
2019-04-22T11:57:39.276Z,4.00
2019-04-22T11:58:39.145Z,4.10
2019-04-22T11:59:40.574Z,3.70
2019-04-22T12:00:39.301Z,3.70
2019-04-22T12:01:39.100Z,3.90
2019-04-22T12:02:39.070Z,4.00
2019-04-22T12:03:40.008Z,4.10
2019-04-22T12:04:40.159Z,4.40
2019-04-22T12:05:39.774Z,3.70
2019-04-22T12:06:40.122Z,3.80
2019-04-22T12:07:40.955Z,3.70
2019-04-22T12:08:39.662Z,3.90
2019-04-22T12:09:39.615Z,4.30
2019-04-22T12:10:48.589Z,4.10
2019-04-22T12:11:40.504Z,4.00
2019-04-22T12:12:39.691Z,4.50
2019-04-22T12:13:39.964Z,3.90
2019-04-22T12:14:40.153Z,4.20
2019-04-22T12:15:38.877Z,3.80
2019-04-22T12:16:39.498Z,4.40
2019-04-22T12:17:40.152Z,4.10
2019-04-22T12:18:39.633Z,4.20
2019-04-22T12:19:40.128Z,3.40
2019-04-22T12:20:39.176Z,3.60
2019-04-22T12:21:39.390Z,3.80
2019-04-22T12:22:38.974Z,3.80
2019-04-22T12:23:39.177Z,3.50
2019-04-22T12:24:40.442Z,3.50
2019-04-22T12:25:47.582Z,3.90
2019-04-22T12:26:39.977Z,3.70
2019-04-22T12:27:39.002Z,4.00
2019-04-22T12:29:22.469Z,4.90
2019-04-22T12:30:21.430Z,5.00
2019-04-22T12:31:21.805Z,4.00
2019-04-22T12:32:21.396Z,3.80
2019-04-22T12:33:21.308Z,4.20
2019-04-22T12:34:21.505Z,3.90
2019-04-22T12:35:20.991Z,4.00
2019-04-22T12:36:22.503Z,3.50
2019-04-22T12:37:27.432Z,3.80
2019-04-22T12:38:22.150Z,4.10
2019-04-22T12:39:21.316Z,3.70
2019-04-22T12:40:34.403Z,3.50
2019-04-22T12:41:21.644Z,3.80
2019-04-22T12:42:21.502Z,3.70
2019-04-22T12:43:23.748Z,3.50
2019-04-22T12:44:22.175Z,3.70
2019-04-22T12:45:22.304Z,3.60
2019-04-22T12:46:20.830Z,4.20
2019-04-22T12:47:22.201Z,4.30
2019-04-22T12:48:21.329Z,4.30
2019-04-22T12:49:22.443Z,4.30
2019-04-22T12:50:26.256Z,3.80
2019-04-22T12:51:20.987Z,3.80
2019-04-22T12:52:28.536Z,4.10
2019-04-22T12:53:24.131Z,3.70
2019-04-22T12:54:21.445Z,3.60
2019-04-22T12:55:21.829Z,3.70
2019-04-22T12:56:21.753Z,4.00
2019-04-22T12:57:20.794Z,3.60
2019-04-22T12:58:20.649Z,3.50
2019-04-22T12:59:21.454Z,3.60
2019-04-22T13:00:20.670Z,4.10
2019-04-22T13:01:21.208Z,3.80
2019-04-22T13:02:20.898Z,4.00
2019-04-22T13:03:20.577Z,3.90
2019-04-22T13:04:23.152Z,3.70
2019-04-22T13:05:20.543Z,4.10
2019-04-22T13:06:21.728Z,4.20
2019-04-22T13:07:21.797Z,4.10
2019-04-22T13:08:20.502Z,3.90
2019-04-22T13:09:21.226Z,4.20
2019-04-22T13:10:21.854Z,3.40
2019-04-22T13:11:27.955Z,3.40
2019-04-22T13:12:22.409Z,4.00
2019-04-22T13:13:20.840Z,3.90
2019-04-22T13:14:21.190Z,3.30
2019-04-22T13:15:20.401Z,3.80
2019-04-22T13:16:20.745Z,7.70
2019-04-22T13:17:20.889Z,5.20
2019-04-22T13:18:30.815Z,3.60
2019-04-22T13:19:22.622Z,3.80
2019-04-22T13:20:22.013Z,4.00
2019-04-22T13:21:20.550Z,4.00
2019-04-22T13:22:21.080Z,3.50
2019-04-22T13:23:20.266Z,4.10
2019-04-22T13:24:21.690Z,4.30
2019-04-22T13:25:23.324Z,4.10
2019-04-22T13:26:21.152Z,3.40
2019-04-22T13:27:21.235Z,4.00
2019-04-22T13:28:21.064Z,3.60
2019-04-22T13:29:21.284Z,3.70
2019-04-22T13:30:20.819Z,3.80
2019-04-22T13:31:20.882Z,3.40
2019-04-22T13:32:20.789Z,4.00
2019-04-22T13:33:21.001Z,3.90
2019-04-22T13:34:29.435Z,3.30
2019-04-22T13:35:22.036Z,3.10
2019-04-22T13:36:22.757Z,3.20
2019-04-22T13:37:20.920Z,3.60
2019-04-22T13:38:20.030Z,3.30
2019-04-22T13:39:20.845Z,3.30
2019-04-22T13:40:21.093Z,3.10
2019-04-22T13:41:31.157Z,3.40
2019-04-22T13:42:22.153Z,3.70
2019-04-22T13:43:20.833Z,3.90
2019-04-22T13:44:20.853Z,3.60
2019-04-22T13:45:20.057Z,3.60
2019-04-22T13:46:20.116Z,3.20
2019-04-22T13:47:39.108Z,3.80
2019-04-22T13:48:40.009Z,3.40
2019-04-22T13:49:49.426Z,4.10
2019-04-22T13:51:30.284Z,5.40
2019-04-22T13:52:48.416Z,3.90
2019-04-22T13:55:39.716Z,3.20
2019-04-22T13:56:28.432Z,3.60
2019-04-22T13:57:19.787Z,2.80
2019-04-22T13:58:14.586Z,3.20
2019-04-22T13:59:10.249Z,3.30
2019-04-22T14:00:02.776Z,2.90
2019-04-22T14:01:02.642Z,3.30
2019-04-22T14:02:02.054Z,3.00
2019-04-22T14:03:02.387Z,3.00
2019-04-22T14:04:02.649Z,2.80
2019-04-22T14:05:02.006Z,3.20
2019-04-22T14:06:02.668Z,3.50
2019-04-22T14:07:02.900Z,3.10
2019-04-22T14:08:02.934Z,2.90
2019-04-22T14:09:03.179Z,3.40
2019-04-22T14:10:02.620Z,3.10
2019-04-22T14:11:11.823Z,3.20
2019-04-22T14:12:05.696Z,2.90
2019-04-22T14:13:03.711Z,2.80
2019-04-22T14:14:02.866Z,2.90
2019-04-22T14:15:02.286Z,3.00
2019-04-22T14:16:01.822Z,3.00
2019-04-22T14:17:02.980Z,3.80
2019-04-22T14:18:03.046Z,3.50
2019-04-22T14:19:02.130Z,2.80
2019-04-22T14:20:02.606Z,3.20
2019-04-22T14:21:02.854Z,3.70
2019-04-22T14:22:02.016Z,3.60
2019-04-22T14:23:03.125Z,3.10
2019-04-22T14:24:02.697Z,3.20
2019-04-22T14:25:02.914Z,4.20
2019-04-22T14:26:01.650Z,3.40
2019-04-22T14:27:17.577Z,3.10
2019-04-22T14:28:04.426Z,3.00
2019-04-22T14:29:01.940Z,3.00
2019-04-22T14:30:01.976Z,2.80
2019-04-22T14:31:02.430Z,3.30
2019-04-22T14:32:09.269Z,4.30
2019-04-22T14:33:02.735Z,4.00
2019-04-22T14:34:05.120Z,3.70
2019-04-22T14:35:04.990Z,3.20
2019-04-22T14:36:02.568Z,3.40
2019-04-22T14:37:44.061Z,3.40
2019-04-22T14:38:43.961Z,3.10
2019-04-22T14:39:44.131Z,3.40
2019-04-22T14:40:45.512Z,3.90
2019-04-22T14:42:00.822Z,3.50
2019-04-22T14:44:15.607Z,2.90
2019-04-22T14:45:02.520Z,3.30
2019-04-22T14:46:20.368Z,2.90
2019-04-22T14:47:15.780Z,3.20
2019-04-22T14:48:09.599Z,3.20
2019-04-22T14:49:02.872Z,3.30
2019-04-22T14:50:05.219Z,3.20
2019-04-22T14:51:00.931Z,3.40
2019-04-22T14:52:07.420Z,3.10
2019-04-22T14:53:06.814Z,2.90
2019-04-22T14:54:01.199Z,2.90
2019-04-22T14:54:51.947Z,3.60
2019-04-22T14:55:46.553Z,3.30
2019-04-22T14:56:44.547Z,2.90
2019-04-22T15:17:31.319Z,3.30
2019-04-22T15:18:31.662Z,3.50
2019-04-22T15:19:31.756Z,3.10
2019-04-22T15:20:31.884Z,3.60
2019-04-22T15:21:30.519Z,5.10
2019-04-22T15:22:30.913Z,3.70
2019-04-22T15:23:31.012Z,3.20
2019-04-22T15:24:30.463Z,3.20
2019-04-22T15:25:30.673Z,3.50
2019-04-22T15:32:09.793Z,3.50
2019-04-22T15:33:09.815Z,3.20
2019-04-22T15:34:10.232Z,3.70
2019-04-22T15:35:09.532Z,3.20
2019-04-22T15:36:10.056Z,3.30
2019-04-22T15:37:09.492Z,3.60
2019-04-22T15:38:11.139Z,3.20
2019-04-22T15:39:09.456Z,3.40
2019-04-22T15:40:10.945Z,3.30
2019-04-22T15:41:10.464Z,3.40
2019-04-22T15:42:18.339Z,2.90
2019-04-22T15:43:10.982Z,3.00
2019-04-22T15:44:10.110Z,3.60
2019-04-22T15:45:11.841Z,3.60
2019-04-22T15:46:09.852Z,3.20
2019-04-22T15:47:09.299Z,2.80
2019-04-22T15:48:10.300Z,3.30
2019-04-22T15:49:09.883Z,3.10
2019-04-22T15:50:10.119Z,2.90
2019-04-22T15:51:10.889Z,3.40
2019-04-22T15:52:10.434Z,3.40
2019-04-22T15:53:09.768Z,3.30
2019-04-22T16:17:28.777Z,2.60
2019-04-22T16:18:28.451Z,2.40
2019-04-22T16:19:28.148Z,2.80
2019-04-22T16:20:28.126Z,2.70
2019-04-22T16:21:37.790Z,2.90
2019-04-22T16:22:29.273Z,2.60
2019-04-22T16:23:29.672Z,2.70
2019-04-22T16:24:28.042Z,3.00
2019-04-22T16:25:29.036Z,3.00
2019-04-22T16:26:28.427Z,2.90
2019-04-22T16:27:27.982Z,3.30
2019-04-22T16:28:29.298Z,3.50
2019-04-22T16:29:29.497Z,2.80
2019-04-22T16:30:27.920Z,3.10
2019-04-22T16:31:29.218Z,3.00
2019-04-22T16:32:28.300Z,2.90
2019-04-22T16:51:07.908Z,2.30
2019-04-22T16:52:08.033Z,2.60
2019-04-22T16:53:08.273Z,2.40
2019-04-22T16:54:08.571Z,2.80
2019-04-22T16:55:08.738Z,3.20
2019-04-22T16:56:08.825Z,2.90
2019-04-22T16:57:08.137Z,2.70
2019-04-22T16:58:07.547Z,2.30
2019-04-22T16:59:08.840Z,2.40
2019-04-22T17:00:08.917Z,2.60
2019-04-22T17:01:08.290Z,2.40
2019-04-22T17:02:08.596Z,2.90
2019-04-22T17:05:15.870Z,2.60
2019-04-22T17:09:50.040Z,2.60
2019-04-22T17:17:08.574Z,2.70
2019-04-22T17:18:09.459Z,2.60
2019-04-22T17:19:09.027Z,3.10
2019-04-22T17:20:09.165Z,2.80
2019-04-22T17:21:09.207Z,2.60
2019-04-22T17:22:07.998Z,2.70
2019-04-22T17:23:09.203Z,2.60
2019-04-22T17:24:07.902Z,2.80
2019-04-22T17:25:08.685Z,3.00
2019-04-22T17:26:08.433Z,2.40
2019-04-22T17:27:08.677Z,2.50
2019-04-22T17:28:07.914Z,2.80
2019-04-22T17:29:08.438Z,3.20
2019-04-22T17:30:08.489Z,3.10
2019-04-22T17:31:08.735Z,2.90
2019-04-22T17:32:13.239Z,3.00
2019-04-22T17:33:08.406Z,3.40
2019-04-22T17:34:07.640Z,2.80
2019-04-22T17:35:08.323Z,2.90
2019-04-22T17:36:09.257Z,3.10
2019-04-22T17:37:15.490Z,2.90
2019-04-22T17:38:16.275Z,2.60
2019-04-22T17:39:24.691Z,3.40
2019-04-22T17:40:29.014Z,3.20
2019-04-22T17:41:21.168Z,3.00
2019-04-22T17:42:25.181Z,3.70
2019-04-22T17:43:36.030Z,3.10
2019-04-22T17:44:31.215Z,3.50
2019-04-22T17:45:33.573Z,2.60
2019-04-22T17:46:24.681Z,3.30
2019-04-22T17:47:27.175Z,2.80
2019-04-22T17:48:30.896Z,3.00
2019-04-22T17:49:31.590Z,3.00
2019-04-22T17:51:16.576Z,3.60
2019-04-22T17:52:10.750Z,3.50
2019-04-22T17:53:18.415Z,3.20
2019-04-22T17:54:26.882Z,3.00
2019-04-22T17:55:04.518Z,2.90
2019-04-22T17:56:14.058Z,3.00
2019-04-22T17:57:12.343Z,3.20
2019-04-22T17:58:17.614Z,3.30
2019-04-22T17:59:51.821Z,3.10
2019-04-22T18:00:52.187Z,2.80
2019-04-22T18:01:51.569Z,3.20
2019-04-22T18:02:44.716Z,3.10
2019-04-22T18:03:40.496Z,3.10
2019-04-22T18:04:40.164Z,3.40
2019-04-22T18:05:40.658Z,2.90
2019-04-22T18:06:55.098Z,2.80
2019-04-22T18:07:55.916Z,3.10
2019-04-22T18:08:50.373Z,2.90
2019-04-22T18:10:21.031Z,3.40
2019-04-22T18:10:54.229Z,3.30
2019-04-22T18:11:56.450Z,3.00
2019-04-22T18:13:01.754Z,3.20
2019-04-22T18:13:51.625Z,2.80
2019-04-22T18:15:01.032Z,3.00
2019-04-22T18:16:51.934Z,3.10
2019-04-22T18:19:16.650Z,3.20
2019-04-22T18:20:16.628Z,2.90
2019-04-22T18:21:14.700Z,3.00
2019-04-22T18:22:07.498Z,3.00
2019-04-22T18:23:05.684Z,3.20
2019-04-22T18:24:08.018Z,2.70
2019-04-22T18:25:07.689Z,3.30
2019-04-22T18:26:14.892Z,3.20
2019-04-22T18:27:31.642Z,3.70
2019-04-22T18:28:17.638Z,3.50
2019-04-22T18:29:20.974Z,3.50
2019-04-22T18:30:16.314Z,3.10
2019-04-22T18:31:11.972Z,3.00
2019-04-22T18:32:08.760Z,3.40
2019-04-22T18:33:20.819Z,3.20
2019-04-22T18:34:09.999Z,3.40
2019-04-22T18:35:18.462Z,3.20
2019-04-22T18:36:16.891Z,3.40
2019-04-22T18:37:13.856Z,3.50
2019-04-22T18:38:29.671Z,3.50
2019-04-22T18:39:22.578Z,3.50
2019-04-22T18:40:14.877Z,3.40
2019-04-22T18:41:12.854Z,3.60
2019-04-22T18:42:09.317Z,3.20
2019-04-22T18:43:16.842Z,3.30
2019-04-22T18:44:19.916Z,3.40
2019-04-22T18:45:31.281Z,3.30
2019-04-22T18:56:52.839Z,3.20
2019-04-22T18:57:45.096Z,3.20
2019-04-22T18:58:46.352Z,3.40
2019-04-22T18:59:36.163Z,3.70
2019-04-22T19:00:31.676Z,3.30
2019-04-22T19:01:31.231Z,3.40
2019-04-22T19:02:34.046Z,3.20
2019-04-22T19:03:42.767Z,3.10
2019-04-22T19:04:40.981Z,3.40
2019-04-22T19:05:51.717Z,3.20
2019-04-22T19:06:56.189Z,3.00
2019-04-22T19:08:00.675Z,3.60
2019-04-22T19:08:55.678Z,3.20
2019-04-22T19:10:03.408Z,3.30
2019-04-22T19:11:00.611Z,3.20
2019-04-22T19:12:06.161Z,3.10
2019-04-22T19:13:20.455Z,2.90
2019-04-22T19:14:56.763Z,3.10
2019-04-22T19:16:09.737Z,3.00
2019-04-22T19:16:53.378Z,3.10
2019-04-22T19:18:04.211Z,3.40
2019-04-22T19:19:05.906Z,3.30
2019-04-22T19:19:56.060Z,3.40
2019-04-22T19:20:59.598Z,3.40
2019-04-22T19:21:55.645Z,3.40
2019-04-22T19:22:57.385Z,3.40
2019-04-22T19:23:52.156Z,3.20
2019-04-22T19:24:47.978Z,3.20
2019-04-22T19:25:47.463Z,2.90
2019-04-22T19:26:57.633Z,3.40
2019-04-22T19:27:46.698Z,3.00
2019-04-22T19:28:55.485Z,3.20
2019-04-22T19:29:57.711Z,3.00
2019-04-22T19:30:59.073Z,3.60
2019-04-22T19:31:53.088Z,3.40
2019-04-22T19:32:51.370Z,3.10
2019-04-22T19:33:53.851Z,3.60
2019-04-22T19:34:50.981Z,3.00
2019-04-22T19:35:56.256Z,3.20
2019-04-22T19:36:51.870Z,3.10
2019-04-22T19:37:47.808Z,2.90